Latest Weather Observations for Mount Magnet Airport

IDW60801

Issued at 11:23 am WST Saturday 22 February 2020 (issued every 10 minutes, with the page automatically refreshed every 10 minutes)

About weather observations | Map of weather stations | Latest weather observations for WA | Other Formats
Station Details ID: 007600 Name: MOUNT MAGNET AERO Lat: -28.12 Lon: 117.84 Height: 407.0 m
Data from the previous 72 hours. | See also: Recent months at Mount Magnet Airport
Date/Time
WST
Temp
°C
App
Temp
°C
Dew
Point
°C
Rel
Hum
%
Delta-T
°C
Wind Press
QNH
hPa
Press
MSL
hPa
Rain since
9am
mm
Dir  Spd
km/h
Gust
km/h
Spd
kts
Gust
kts
22/11:00am 33.6 30.7 10.9 25 13.5 NE 17 28 9 15 1012.2 1009.0 0.0
22/10:30am 32.3 29.1 9.8 25 13.0 NNE 17 24 9 13 1012.6 1009.5 0.0
22/10:00am 31.3 27.4 9.5 26 12.5 NNE 20 35 11 19 1013.1 1010.0 0.0
22/09:30am 30.3 28.1 10.8 30 11.4 ESE 13 20 7 11 1013.3 1010.2 0.0
22/09:00am 29.2 27.1 11.3 33 10.5 E 13 20 7 11 1013.7 1010.6 0.0
22/08:30am 27.7 25.9 12.1 38 9.2 SE 13 17 7 9 1013.7 1010.6 0.0
22/08:00am 25.9 24.6 13.7 47 7.3 S 13 19 7 10 1013.7 1010.6 0.0
22/07:30am 24.8 23.3 14.3 52 6.3 SW 15 20 8 11 1013.4 1010.3 0.0
22/07:00am 25.2 24.2 12.4 45 7.5 ENE 9 13 5 7 1012.7 1009.6 0.0
22/06:30am 23.4 23.0 14.1 56 5.6 ENE 9 11 5 6 1012.7 1009.6 0.0
22/06:00am 23.2 22.4 12.8 52 6.1 NE 9 11 5 6 1012.4 1009.2 0.0
22/05:30am 23.7 23.1 12.4 49 6.6 ENE 7 11 4 6 1011.9 1008.7 0.0
22/05:00am 24.3 22.9 12.3 47 7.0 ENE 11 13 6 7 1011.6 1008.4 0.0
22/04:30am 24.0 23.2 12.9 50 6.5 ENE 9 13 5 7 1011.5 1008.3 0.0
22/04:00am 23.8 23.5 12.8 50 6.5 E 6 7 3 4 1011.4 1008.2 0.0
22/03:30am 24.1 23.2 12.7 49 6.7 ENE 9 13 5 7 1011.2 1008.1 0.0
22/03:00am 24.4 22.7 12.4 47 7.0 ENE 13 15 7 8 1011.4 1008.2 0.0
22/02:30am 24.6 23.0 12.9 48 6.9 ENE 13 17 7 9 1011.5 1008.3 0.0
22/02:00am 24.9 22.5 12.5 46 7.3 E 17 20 9 11 1011.6 1008.4 0.0
22/01:30am 25.2 23.1 12.4 45 7.5 E 15 20 8 11 1011.8 1008.6 0.0
22/01:00am 25.2 23.6 12.8 46 7.3 E 13 17 7 9 1012.3 1009.1 0.0
22/12:30am 25.0 24.0 13.5 48 6.9 ESE 11 15 6 8 1012.8 1009.7 0.0
22/12:00am 24.5 24.2 14.3 53 6.1 ESE 9 13 5 7 1013.0 1009.9 0.0
 
Date/Time
WST
Temp
°C
App
Temp
°C
Dew
Point
°C
Rel
Hum
%
Delta-T
°C
Wind Press
QNH
hPa
Press
MSL
hPa
Rain since
9am
mm
Dir  Spd
km/h
Gust
km/h
Spd
kts
Gust
kts
21/11:30pm 24.1 24.6 15.6 59 5.2 SSE 7 9 4 5 1013.3 1010.2 0.0
21/11:00pm 24.9 24.6 14.4 52 6.3 SE 9 11 5 6 1013.7 1010.6 0.0
21/10:30pm 25.3 24.8 13.8 49 6.9 ESE 9 9 5 5 1014.1 1010.9 0.0
21/10:00pm 25.6 25.0 13.5 47 7.2 ESE 9 11 5 6 1014.1 1010.9 0.0
21/09:30pm 26.0 25.7 13.2 45 7.6 ESE 7 9 4 5 1014.2 1011.0 0.0
21/09:00pm 26.5 25.8 13.3 44 7.9 ESE 9 11 5 6 1014.3 1011.1 0.0
21/08:30pm 27.2 26.2 12.4 40 8.7 ESE 9 13 5 7 1014.3 1011.1 0.0
21/08:00pm 27.6 25.8 12.0 38 9.2 ESE 13 15 7 8 1013.8 1010.7 0.0
21/07:30pm 28.1 26.3 12.0 36 9.5 ESE 13 17 7 9 1013.5 1010.4 0.0
21/07:00pm 28.6 25.4 11.2 34 10.1 E 19 24 10 13 1013.1 1010.0 0.0
21/06:30pm 29.3 25.2 11.4 33 10.5 E 24 30 13 16 1012.8 1009.7 0.0
21/06:00pm 30.1 26.4 11.6 32 10.9 E 22 30 12 16 1012.5 1009.4 0.0
21/05:30pm 30.6 26.6 10.5 29 11.7 ENE 22 30 12 16 1012.3 1009.1 0.0
21/05:00pm 31.2 27.8 11.1 29 11.8 E 20 30 11 16 1012.2 1009.0 0.0
21/04:30pm 32.1 28.8 10.8 27 12.5 E 19 28 10 15 1012.2 1009.0 0.0
21/04:00pm 32.3 29.8 10.9 27 12.6 ESE 15 20 8 11 1012.5 1009.4 0.0
21/03:30pm 31.3 28.7 10.6 28 12.1 E 15 26 8 14 1012.7 1009.6 0.0
21/03:00pm 31.6 28.5 10.3 27 12.4 E 17 26 9 14 1013.1 1010.0 0.0
21/02:30pm 31.3 28.7 10.6 28 12.1 ENE 15 26 8 14 1013.4 1010.3 0.0
21/02:00pm 31.1 29.0 11.0 29 11.8 ENE 13 24 7 13 1013.7 1010.6 0.0
21/01:30pm 31.0 27.6 10.4 28 12.0 ENE 19 28 10 15 1014.0 1010.8 0.0
21/01:00pm 30.9 28.1 11.3 30 11.6 ENE 17 26 9 14 1014.5 1011.3 0.0
21/12:30pm 29.9 27.1 11.4 32 10.9 E 17 24 9 13 1014.9 1011.8 0.0
21/12:00pm 29.3 25.9 11.4 33 10.5 ENE 20 28 11 15 1015.3 1012.2 0.0
21/11:30am 28.8 24.7 11.4 34 10.2 NE 24 32 13 17 1015.8 1012.7 0.0
21/11:00am 27.8 23.7 11.4 36 9.5 ENE 24 33 13 18 1016.3 1013.2 0.0
21/10:30am 26.5 22.4 11.4 39 8.7 ENE 24 32 13 17 1016.8 1013.6 0.0
21/10:00am 25.4 22.7 13.6 48 7.0 ENE 20 30 11 16 1016.9 1013.8 0.0
21/09:30am 24.6 22.0 13.8 51 6.5 ENE 20 28 11 15 1017.4 1014.3 0.0
21/09:00am 23.8 20.8 13.6 52 6.0 ENE 22 28 12 15 1017.4 1014.3 6.0
21/08:30am 22.8 21.1 14.6 60 4.9 E 17 24 9 13 1017.1 1014.0 6.0
21/08:00am 22.1 20.8 14.7 63 4.4 E 15 20 8 11 1016.8 1013.6 6.0
21/07:30am 21.6 21.0 14.7 65 4.1 ESE 11 13 6 7 1016.8 1013.6 6.0
21/07:00am 21.0 21.0 15.3 70 3.4 ENE 9 13 5 7 1016.7 1013.5 6.0
21/06:30am 21.0 20.6 15.1 69 3.5 ENE 11 13 6 7 1016.2 1013.1 6.0
21/06:00am 21.1 20.9 14.7 67 3.8 E 9 11 5 6 1015.9 1012.8 6.0
21/05:30am 21.0 21.0 15.1 69 3.5 ESE 9 13 5 7 1015.6 1012.5 6.0
21/05:00am 21.5 20.8 14.2 63 4.3 SE 11 13 6 7 1015.7 1012.6 6.0
21/04:30am 21.6 21.3 14.3 63 4.3 E 9 15 5 8 1015.3 1012.2 6.0
21/04:00am 21.5 19.2 14.2 63 4.3 ENE 19 22 10 12 1014.8 1011.7 6.0
21/03:30am 21.7 19.8 14.1 62 4.5 ENE 17 20 9 11 1015.5 1012.4 6.0
21/03:00am 21.8 20.7 14.2 62 4.5 ENE 13 17 7 9 1015.9 1012.8 6.0
21/02:30am 21.6 21.6 15.2 67 3.9 ENE 9 13 5 7 1016.0 1012.9 6.0
21/02:00am 21.7 21.7 15.3 67 3.9 ENE 9 11 5 6 1016.3 1013.2 6.0
21/01:30am 21.7 22.3 15.8 69 3.6 E 7 9 4 5 1016.6 1013.4 6.0
21/01:00am 22.0 22.0 15.1 65 4.2 E 9 9 5 5 1016.7 1013.5 6.0
21/12:30am 22.3 22.1 14.7 62 4.6 E 9 11 5 6 1016.7 1013.5 6.0
21/12:00am 22.7 21.2 14.3 59 5.0 ENE 15 20 8 11 1016.4 1013.3 6.0
 
Date/Time
WST
Temp
°C
App
Temp
°C
Dew
Point
°C
Rel
Hum
%
Delta-T
°C
Wind Press
QNH
hPa
Press
MSL
hPa
Rain since
9am
mm
Dir  Spd
km/h
Gust
km/h
Spd
kts
Gust
kts
20/11:30pm 23.1 21.2 14.1 57 5.4 E 17 22 9 12 1015.9 1012.8 6.0
20/11:00pm 23.4 21.7 14.7 58 5.2 E 17 20 9 11 1015.7 1012.6 6.0
20/10:30pm 23.6 22.5 16.4 64 4.5 E 17 26 9 14 1016.0 1012.9 6.0
20/10:00pm 23.2 24.1 18.5 75 3.0 E 11 13 6 7 1016.3 1013.2 6.0
20/09:30pm 23.3 23.5 18.6 75 3.0 ESE 15 19 8 10 1016.1 1013.0 6.0
20/09:00pm 23.3 24.0 18.8 76 2.9 ESE 13 19 7 10 1015.8 1012.7 6.0
20/08:30pm 23.3 24.0 18.8 76 2.9 E 13 17 7 9 1015.6 1012.5 6.0
20/08:00pm 23.4 23.8 18.9 76 2.9 ESE 15 20 8 11 1015.4 1012.3 6.0
20/07:30pm 23.3 22.9 18.8 76 2.9 ESE 19 26 10 14 1015.2 1012.1 6.0
20/07:00pm 23.4 23.0 19.3 78 2.7 ESE 20 28 11 15 1014.8 1011.7 6.0
20/06:30pm 23.1 24.7 20.8 87 1.5 ESE 13 17 7 9 1014.7 1011.6 6.0
20/06:00pm 23.2 24.0 20.7 86 1.7 SSE 17 20 9 11 1014.6 1011.4 6.0
20/05:30pm 22.9 24.0 21.2 90 1.1 SSE 17 20 9 11 1014.3 1011.1 6.0
20/05:04pm 22.6 24.2 20.7 89 1.3 S 13 19 7 10 1014.3 1011.1 6.0
20/05:00pm 22.7 24.4 21.0 90 1.1 S 13 19 7 10 1014.2 1011.0 6.0
20/04:31pm 22.4 23.0 20.3 88 1.4 NNW 17 28 9 15 1014.3 1011.1 2.4
20/04:30pm 22.5 23.1 20.2 87 1.5 NNW 17 28 9 15 1014.3 1011.1 2.2
20/04:00pm 26.7 24.5 18.6 61 5.3 SE 28 35 15 19 1013.2 1010.1 0.2
20/03:30pm 27.7 25.5 17.8 54 6.4 SE 26 35 14 19 1013.2 1010.1 0.2
20/03:00pm 28.6 27.1 16.8 48 7.5 E 20 33 11 18 1013.5 1010.4 0.2
20/02:30pm 28.7 26.5 16.9 48 7.5 ESE 24 32 13 17 1013.5 1010.4 0.2
20/02:00pm 28.7 25.5 16.3 47 7.8 ESE 28 37 15 20 1013.8 1010.7 0.2
20/01:30pm 29.1 27.1 17.3 49 7.6 E 24 35 13 19 1014.1 1010.9 0.2
20/01:00pm 28.2 25.7 17.1 51 7.1 E 26 37 14 20 1014.3 1011.1 0.2
20/12:30pm 27.1 24.6 17.0 54 6.4 E 26 37 14 20 1014.6 1011.4 0.2
20/12:00pm 26.2 24.2 16.4 54 6.1 E 22 33 12 18 1014.9 1011.8 0.2
20/11:30am 25.4 23.4 16.5 58 5.6 E 22 37 12 20 1015.3 1012.2 0.0
20/11:00am 24.7 22.3 16.4 60 5.2 ENE 24 32 13 17 1015.6 1012.5 0.0
20/10:30am 24.2 21.5 16.7 63 4.7 ENE 26 39 14 21 1015.8 1012.7 0.0
20/10:00am 23.6 20.8 16.4 64 4.5 ENE 26 37 14 20 1015.7 1012.6 0.0
20/09:30am 23.2 20.8 16.3 65 4.3 ENE 24 41 13 22 1015.5 1012.4 0.0
20/09:00am 22.6 19.5 16.6 69 3.7 ENE 28 37 15 20 1015.4 1012.3 7.4
20/08:30am 22.6 20.4 16.9 70 3.6 ENE 24 35 13 19 1015.2 1012.1 7.4
20/08:00am 22.1 20.2 16.8 72 3.3 ENE 22 32 12 17 1015.2 1012.1 7.4
20/07:30am 21.7 20.5 17.1 75 2.9 ENE 19 28 10 15 1015.5 1012.4 7.4
20/07:00am 21.3 20.1 17.1 77 2.6 ENE 19 28 10 15 1015.3 1012.2 7.4
20/06:30am 21.0 19.7 17.2 79 2.4 E 20 30 11 16 1014.6 1011.4 7.4
20/06:00am 20.8 18.6 17.0 79 2.4 E 24 32 13 17 1014.3 1011.1 7.4
20/05:30am 20.5 19.5 17.9 85 1.6 E 20 26 11 14 1014.2 1011.0 7.4
20/05:00am 19.7 17.6 18.9 95 0.5 ESE 28 35 15 19 1013.7 1010.6 7.4
20/04:30am 19.6 19.4 18.6 94 0.6 ESE 17 20 9 11 1015.1 1012.0 7.4
20/04:00am 19.5 19.2 18.3 93 0.8 ESE 17 20 9 11 1015.4 1012.3 7.2
20/03:30am 19.8 19.2 18.5 92 0.8 SE 19 24 10 13 1015.3 1012.2 5.6
20/03:00am 20.1 20.2 18.4 90 1.1 SW 15 17 8 9 1015.8 1012.7 3.0
20/02:30am 21.0 20.5 17.8 82 2.0 SW 17 20 9 11 1015.7 1012.6 0.8
20/02:00am 22.7 21.1 16.0 66 4.1 SE 19 24 10 13 1014.4 1011.2 0.0
20/01:30am 22.7 20.7 15.5 64 4.4 ESE 20 30 11 16 1014.1 1010.9 0.0
20/01:00am 22.9 20.4 15.2 62 4.7 ESE 22 30 12 16 1014.0 1010.8 0.0
20/12:30am 22.5 19.8 15.6 65 4.2 SE 24 32 13 17 1014.2 1011.0 0.0
20/12:00am 23.1 18.7 15.2 61 4.8 SE 32 41 17 22 1014.6 1011.4 0.0
 
Date/Time
WST
Temp
°C
App
Temp
°C
Dew
Point
°C
Rel
Hum
%
Delta-T
°C
Wind Press
QNH
hPa
Press
MSL
hPa
Rain since
9am
mm
Dir  Spd
km/h
Gust
km/h
Spd
kts
Gust
kts
19/11:30pm 23.8 19.3 15.3 59 5.2 SSE 33 43 18 23 1014.5 1011.3 0.0
19/11:00pm 24.8 20.4 15.1 54 5.9 S 32 41 17 22 1014.8 1011.7 0.0
19/10:30pm 25.4 21.1 15.4 54 6.2 S 32 43 17 23 1014.4 1011.2 0.0
19/10:00pm 27.2 24.3 13.9 44 8.0 SSW 22 32 12 17 1013.8 1010.7 0.0
19/09:30pm 29.7 27.4 10.3 30 11.2 S 13 17 7 9 1013.8 1010.7 0.0
19/09:00pm 29.9 24.6 9.9 29 11.5 E 28 39 15 21 1012.2 1009.0 0.0
19/08:30pm 30.8 26.1 10.7 29 11.7 SE 26 43 14 23 1011.7 1008.5 0.0
19/08:25pm 31.3 27.9 10.6 28 12.1 SSE 19 43 10 23 1011.7 1008.5 0.0
19/08:00pm 32.3 30.7 11.5 28 12.4 SE 11 15 6 8 1010.6 1007.5 0.0
19/07:30pm 32.7 32.3 12.9 30 12.0 SW 7 9 4 5 1010.3 1007.2 0.0
19/07:00pm 33.1 32.6 12.7 29 12.4 WSW 7 11 4 6 1010.0 1006.8 0.0
19/06:30pm 33.8 32.8 11.0 25 13.5 WSW 7 9 4 5 1009.6 1006.4 0.0
19/06:00pm 34.3 33.3 10.2 23 14.2 SSW 6 9 3 5 1009.5 1006.3 0.0
19/05:30pm 34.4 32.2 10.9 24 14.0 W 13 17 7 9 1009.4 1006.2 0.0
19/05:00pm 34.4 32.4 10.3 23 14.2 W 11 15 6 8 1009.8 1006.6 0.0
19/04:30pm 34.4 33.0 10.9 24 14.0 SW 9 15 5 8 1010.0 1006.8 0.0
19/04:00pm 34.8 33.1 11.2 24 14.1 SSW 11 17 6 9 1010.2 1007.1 0.0
19/03:30pm 34.8 34.1 11.9 25 13.8 SSE 7 15 4 8 1010.4 1007.3 0.0
19/03:00pm 34.1 33.2 11.3 25 13.6 WNW 7 17 4 9 1010.7 1007.6 0.0
19/02:30pm 33.6 33.1 12.6 28 12.8 E 7 13 4 7 1011.2 1008.1 0.0
19/02:00pm 32.6 32.1 12.8 30 12.0 S 7 13 4 7 1011.8 1008.6 0.0
19/01:30pm 32.5 31.8 13.2 31 11.8 WNW 9 19 5 10 1012.1 1008.9 0.0
19/01:00pm 31.7 31.3 13.0 32 11.4 N 7 15 4 8 1012.5 1009.4 0.0
19/12:30pm 31.4 30.9 12.7 32 11.3 NW 7 15 4 8 1012.9 1009.8 0.0
19/12:00pm 31.3 30.2 13.1 33 11.1 NNE 11 17 6 9 1013.3 1010.2 0.0
19/11:30am 30.4 28.9 13.2 35 10.4 N 13 19 7 10 1013.6 1010.5 0.0

Other formats

Comma delimited format used in spreadsheet applications
http://www.bom.gov.au/fwo/IDW60801/IDW60801.94429.axf

JavaScript Object Notation format (JSON) in row-major order
http://www.bom.gov.au/fwo/IDW60801/IDW60801.94429.json

Data quality

Most of these data are generated automatically and are frequently updated. Quality checks on data are not normally performed. It is possible for incorrect values to appear. Refer to information at About Latest Weather Observations and please check the disclaimer before using these data.